sensor_id;sensor_type;location;lat;lon;timestamp;temperature;humidity
1329;DHT22;658;48.820;9.354;2023-02-26T00:02:08;22.00;39.80
1329;DHT22;658;48.820;9.354;2023-02-26T00:06:10;21.90;39.80
1329;DHT22;658;48.820;9.354;2023-02-26T00:10:12;21.80;39.80
1329;DHT22;658;48.820;9.354;2023-02-26T00:14:14;21.80;39.90
1329;DHT22;658;48.820;9.354;2023-02-26T00:18:15;21.80;39.90
1329;DHT22;658;48.820;9.354;2023-02-26T00:22:17;21.80;40.00
1329;DHT22;658;48.820;9.354;2023-02-26T00:26:18;21.70;40.00
1329;DHT22;658;48.820;9.354;2023-02-26T00:30:19;21.70;40.50
1329;DHT22;658;48.820;9.354;2023-02-26T00:34:20;21.60;40.00
1329;DHT22;658;48.820;9.354;2023-02-26T00:38:21;21.70;40.00
1329;DHT22;658;48.820;9.354;2023-02-26T00:42:22;21.60;40.00
1329;DHT22;658;48.820;9.354;2023-02-26T00:46:34;21.60;40.00
1329;DHT22;658;48.820;9.354;2023-02-26T00:50:41;21.60;40.00
1329;DHT22;658;48.820;9.354;2023-02-26T00:54:44;21.60;40.00
1329;DHT22;658;48.820;9.354;2023-02-26T00:58:45;21.50;39.90
1329;DHT22;658;48.820;9.354;2023-02-26T01:02:46;21.50;39.90
1329;DHT22;658;48.820;9.354;2023-02-26T01:06:50;21.50;40.00
1329;DHT22;658;48.820;9.354;2023-02-26T01:10:51;21.50;40.30
1329;DHT22;658;48.820;9.354;2023-02-26T01:14:51;21.50;39.90
1329;DHT22;658;48.820;9.354;2023-02-26T01:19:16;21.50;39.90
1329;DHT22;658;48.820;9.354;2023-02-26T01:23:25;21.50;39.90
1329;DHT22;658;48.820;9.354;2023-02-26T01:27:26;21.50;39.80
1329;DHT22;658;48.820;9.354;2023-02-26T01:31:37;21.50;39.90
1329;DHT22;658;48.820;9.354;2023-02-26T01:35:47;21.50;39.80
1329;DHT22;658;48.820;9.354;2023-02-26T01:40:27;21.50;39.90
1329;DHT22;658;48.820;9.354;2023-02-26T01:44:46;21.40;39.80
1329;DHT22;658;48.820;9.354;2023-02-26T01:48:52;21.50;39.90
1329;DHT22;658;48.820;9.354;2023-02-26T01:57:13;21.50;39.80
1329;DHT22;658;48.820;9.354;2023-02-26T02:01:14;21.50;39.80
1329;DHT22;658;48.820;9.354;2023-02-26T02:05:24;21.50;39.80
1329;DHT22;658;48.820;9.354;2023-02-26T02:09:27;21.40;39.80
1329;DHT22;658;48.820;9.354;2023-02-26T02:13:55;21.50;39.80
1329;DHT22;658;48.820;9.354;2023-02-26T02:18:21;21.40;39.80
1329;DHT22;658;48.820;9.354;2023-02-26T02:31:26;21.40;39.60
1329;DHT22;658;48.820;9.354;2023-02-26T02:35:55;21.40;39.60
1329;DHT22;658;48.820;9.354;2023-02-26T02:40:01;21.40;39.60
1329;DHT22;658;48.820;9.354;2023-02-26T02:44:06;21.40;39.70
1329;DHT22;658;48.820;9.354;2023-02-26T02:48:16;21.40;39.60
1329;DHT22;658;48.820;9.354;2023-02-26T02:52:30;21.40;39.60
1329;DHT22;658;48.820;9.354;2023-02-26T02:56:46;21.40;39.60
1329;DHT22;658;48.820;9.354;2023-02-26T03:00:54;21.40;39.60
1329;DHT22;658;48.820;9.354;2023-02-26T03:04:55;21.40;39.60
1329;DHT22;658;48.820;9.354;2023-02-26T03:08:57;21.30;39.40
1329;DHT22;658;48.820;9.354;2023-02-26T03:12:59;21.40;39.50
1329;DHT22;658;48.820;9.354;2023-02-26T03:17:11;21.40;39.50
1329;DHT22;658;48.820;9.354;2023-02-26T03:30:42;21.30;39.40
1329;DHT22;658;48.820;9.354;2023-02-26T03:34:52;21.30;39.40
1329;DHT22;658;48.820;9.354;2023-02-26T03:39:10;21.30;39.40
1329;DHT22;658;48.820;9.354;2023-02-26T03:43:26;21.30;39.40
1329;DHT22;658;48.820;9.354;2023-02-26T03:47:29;21.30;39.40
1329;DHT22;658;48.820;9.354;2023-02-26T03:51:31;21.30;39.40
1329;DHT22;658;48.820;9.354;2023-02-26T03:55:43;21.30;39.40
1329;DHT22;658;48.820;9.354;2023-02-26T03:59:45;21.30;39.30
1329;DHT22;658;48.820;9.354;2023-02-26T04:03:59;21.30;39.30
1329;DHT22;658;48.820;9.354;2023-02-26T04:08:01;21.30;39.40
1329;DHT22;658;48.820;9.354;2023-02-26T04:12:02;21.30;39.30
1329;DHT22;658;48.820;9.354;2023-02-26T04:16:03;21.30;39.40
1329;DHT22;658;48.820;9.354;2023-02-26T04:20:05;21.30;39.30
1329;DHT22;658;48.820;9.354;2023-02-26T04:24:11;21.30;39.30
1329;DHT22;658;48.820;9.354;2023-02-26T04:28:12;21.30;39.30
1329;DHT22;658;48.820;9.354;2023-02-26T04:32:13;21.30;39.30
1329;DHT22;658;48.820;9.354;2023-02-26T04:36:13;21.30;39.30
1329;DHT22;658;48.820;9.354;2023-02-26T04:40:14;21.30;39.30
1329;DHT22;658;48.820;9.354;2023-02-26T04:44:15;21.30;39.30
1329;DHT22;658;48.820;9.354;2023-02-26T04:48:16;21.30;39.30
1329;DHT22;658;48.820;9.354;2023-02-26T04:52:17;21.30;39.20
1329;DHT22;658;48.820;9.354;2023-02-26T04:56:17;21.30;39.30
1329;DHT22;658;48.820;9.354;2023-02-26T05:00:18;21.30;39.30
1329;DHT22;658;48.820;9.354;2023-02-26T05:04:19;21.30;39.30
1329;DHT22;658;48.820;9.354;2023-02-26T05:08:20;21.30;39.30
1329;DHT22;658;48.820;9.354;2023-02-26T05:12:20;21.30;39.30
1329;DHT22;658;48.820;9.354;2023-02-26T05:16:21;21.30;39.30
1329;DHT22;658;48.820;9.354;2023-02-26T05:20:21;21.30;39.30
1329;DHT22;658;48.820;9.354;2023-02-26T05:24:22;21.30;39.20
1329;DHT22;658;48.820;9.354;2023-02-26T05:28:24;21.20;39.10
1329;DHT22;658;48.820;9.354;2023-02-26T05:32:26;21.30;39.30
1329;DHT22;658;48.820;9.354;2023-02-26T05:36:27;21.20;39.10
1329;DHT22;658;48.820;9.354;2023-02-26T05:40:27;21.20;39.20
1329;DHT22;658;48.820;9.354;2023-02-26T05:44:28;21.20;39.10
1329;DHT22;658;48.820;9.354;2023-02-26T05:48:28;21.20;39.20
1329;DHT22;658;48.820;9.354;2023-02-26T05:52:29;21.20;39.10
1329;DHT22;658;48.820;9.354;2023-02-26T05:56:30;21.20;39.10
1329;DHT22;658;48.820;9.354;2023-02-26T06:00:31;21.20;39.10
1329;DHT22;658;48.820;9.354;2023-02-26T06:04:32;21.20;39.10
1329;DHT22;658;48.820;9.354;2023-02-26T06:08:32;21.20;39.00
1329;DHT22;658;48.820;9.354;2023-02-26T06:12:34;21.20;39.00
1329;DHT22;658;48.820;9.354;2023-02-26T06:16:34;21.20;39.00
1329;DHT22;658;48.820;9.354;2023-02-26T06:20:35;21.20;38.90
1329;DHT22;658;48.820;9.354;2023-02-26T06:24:36;21.20;38.80
1329;DHT22;658;48.820;9.354;2023-02-26T06:28:37;21.20;38.90
1329;DHT22;658;48.820;9.354;2023-02-26T06:32:37;21.20;38.90
1329;DHT22;658;48.820;9.354;2023-02-26T06:36:38;21.20;38.90
1329;DHT22;658;48.820;9.354;2023-02-26T06:40:42;21.20;38.80
1329;DHT22;658;48.820;9.354;2023-02-26T06:44:42;21.20;38.80
1329;DHT22;658;48.820;9.354;2023-02-26T06:48:43;21.20;38.80
1329;DHT22;658;48.820;9.354;2023-02-26T06:52:43;21.20;38.70
1329;DHT22;658;48.820;9.354;2023-02-26T06:56:44;21.20;38.80
1329;DHT22;658;48.820;9.354;2023-02-26T07:00:45;21.20;38.70
1329;DHT22;658;48.820;9.354;2023-02-26T07:04:46;21.20;38.80
1329;DHT22;658;48.820;9.354;2023-02-26T07:08:46;21.20;38.70
1329;DHT22;658;48.820;9.354;2023-02-26T07:12:47;21.20;38.70
1329;DHT22;658;48.820;9.354;2023-02-26T07:16:48;21.20;38.70
1329;DHT22;658;48.820;9.354;2023-02-26T07:20:49;21.30;38.70
1329;DHT22;658;48.820;9.354;2023-02-26T07:24:49;21.30;38.70
1329;DHT22;658;48.820;9.354;2023-02-26T07:28:50;21.30;38.70
1329;DHT22;658;48.820;9.354;2023-02-26T07:32:51;21.30;38.70
1329;DHT22;658;48.820;9.354;2023-02-26T07:36:51;21.30;38.70
1329;DHT22;658;48.820;9.354;2023-02-26T07:40:55;21.30;38.60
1329;DHT22;658;48.820;9.354;2023-02-26T07:44:56;21.30;38.60
1329;DHT22;658;48.820;9.354;2023-02-26T07:48:56;21.30;38.60
1329;DHT22;658;48.820;9.354;2023-02-26T07:52:57;21.30;38.60
1329;DHT22;658;48.820;9.354;2023-02-26T07:56:58;21.30;39.20
1329;DHT22;658;48.820;9.354;2023-02-26T08:00:58;21.30;38.60
1329;DHT22;658;48.820;9.354;2023-02-26T08:04:59;21.30;38.60
1329;DHT22;658;48.820;9.354;2023-02-26T08:09:00;21.30;38.60
1329;DHT22;658;48.820;9.354;2023-02-26T08:13:01;21.30;38.50
1329;DHT22;658;48.820;9.354;2023-02-26T08:17:02;21.30;38.60
1329;DHT22;658;48.820;9.354;2023-02-26T08:21:03;21.30;38.50
1329;DHT22;658;48.820;9.354;2023-02-26T08:25:04;21.30;38.50
1329;DHT22;658;48.820;9.354;2023-02-26T08:29:05;21.30;38.50
1329;DHT22;658;48.820;9.354;2023-02-26T08:33:06;21.30;38.50
1329;DHT22;658;48.820;9.354;2023-02-26T08:37:07;21.30;38.50
1329;DHT22;658;48.820;9.354;2023-02-26T08:41:10;21.30;38.40
1329;DHT22;658;48.820;9.354;2023-02-26T08:45:11;21.30;38.40
1329;DHT22;658;48.820;9.354;2023-02-26T08:49:12;21.30;38.40
1329;DHT22;658;48.820;9.354;2023-02-26T08:53:13;21.30;38.50
1329;DHT22;658;48.820;9.354;2023-02-26T08:57:13;21.50;38.20
1329;DHT22;658;48.820;9.354;2023-02-26T09:01:14;21.60;38.00
1329;DHT22;658;48.820;9.354;2023-02-26T09:05:15;21.70;37.90
1329;DHT22;658;48.820;9.354;2023-02-26T09:09:16;21.70;37.90
1329;DHT22;658;48.820;9.354;2023-02-26T09:13:16;21.70;38.00
1329;DHT22;658;48.820;9.354;2023-02-26T09:17:17;21.80;38.10
1329;DHT22;658;48.820;9.354;2023-02-26T09:21:18;21.80;38.00
1329;DHT22;658;48.820;9.354;2023-02-26T09:25:18;21.90;38.00
1329;DHT22;658;48.820;9.354;2023-02-26T09:29:19;22.00;38.00
1329;DHT22;658;48.820;9.354;2023-02-26T09:33:20;22.00;38.00
1329;DHT22;658;48.820;9.354;2023-02-26T09:37:21;22.00;38.10
1329;DHT22;658;48.820;9.354;2023-02-26T09:41:36;21.90;38.10
1329;DHT22;658;48.820;9.354;2023-02-26T09:45:41;22.00;38.10
1329;DHT22;658;48.820;9.354;2023-02-26T09:53:49;22.00;38.30
1329;DHT22;658;48.820;9.354;2023-02-26T09:57:56;22.00;38.50
1329;DHT22;658;48.820;9.354;2023-02-26T10:02:04;22.00;38.60
1329;DHT22;658;48.820;9.354;2023-02-26T10:10:50;22.10;38.90
1329;DHT22;658;48.820;9.354;2023-02-26T10:19:09;22.10;39.20
1329;DHT22;658;48.820;9.354;2023-02-26T10:23:43;22.20;39.20
1329;DHT22;658;48.820;9.354;2023-02-26T10:32:29;22.20;39.00
1329;DHT22;658;48.820;9.354;2023-02-26T10:36:39;22.30;39.00
1329;DHT22;658;48.820;9.354;2023-02-26T10:40:50;22.30;39.00
1329;DHT22;658;48.820;9.354;2023-02-26T10:49:28;22.30;38.90
1329;DHT22;658;48.820;9.354;2023-02-26T10:53:32;22.20;38.80
1329;DHT22;658;48.820;9.354;2023-02-26T10:57:37;22.30;38.80
1329;DHT22;658;48.820;9.354;2023-02-26T11:01:39;22.30;38.70
1329;DHT22;658;48.820;9.354;2023-02-26T11:05:40;22.40;38.50
1329;DHT22;658;48.820;9.354;2023-02-26T11:09:44;22.60;38.00
1329;DHT22;658;48.820;9.354;2023-02-26T11:13:46;23.10;37.40
1329;DHT22;658;48.820;9.354;2023-02-26T11:17:47;23.40;36.80
1329;DHT22;658;48.820;9.354;2023-02-26T11:21:50;23.60;36.30
1329;DHT22;658;48.820;9.354;2023-02-26T11:25:59;23.80;36.20
1329;DHT22;658;48.820;9.354;2023-02-26T11:30:16;23.60;36.40
1329;DHT22;658;48.820;9.354;2023-02-26T11:34:22;24.10;35.90
1329;DHT22;658;48.820;9.354;2023-02-26T11:38:25;24.80;34.70
1329;DHT22;658;48.820;9.354;2023-02-26T11:42:26;26.20;31.90
1329;DHT22;658;48.820;9.354;2023-02-26T11:46:27;25.80;32.60
1329;DHT22;658;48.820;9.354;2023-02-26T11:50:29;25.00;34.00
1329;DHT22;658;48.820;9.354;2023-02-26T11:54:34;24.40;35.00
1329;DHT22;658;48.820;9.354;2023-02-26T11:58:38;24.00;35.60
1329;DHT22;658;48.820;9.354;2023-02-26T12:02:39;23.80;35.90
1329;DHT22;658;48.820;9.354;2023-02-26T12:06:39;23.60;36.00
1329;DHT22;658;48.820;9.354;2023-02-26T12:15:13;23.50;36.20
1329;DHT22;658;48.820;9.354;2023-02-26T12:19:20;23.60;36.30
1329;DHT22;658;48.820;9.354;2023-02-26T12:24:14;23.30;36.60
1329;DHT22;658;48.820;9.354;2023-02-26T12:28:37;23.20;38.90
1329;DHT22;658;48.820;9.354;2023-02-26T12:50:40;23.20;42.00
1329;DHT22;658;48.820;9.354;2023-02-26T13:12:13;22.90;43.60
1329;DHT22;658;48.820;9.354;2023-02-26T13:20:36;22.80;44.60
1329;DHT22;658;48.820;9.354;2023-02-26T13:24:45;22.80;44.60
1329;DHT22;658;48.820;9.354;2023-02-26T13:28:55;22.80;45.70
1329;DHT22;658;48.820;9.354;2023-02-26T13:32:58;22.80;45.10
1329;DHT22;658;48.820;9.354;2023-02-26T13:36:59;22.90;44.90
1329;DHT22;658;48.820;9.354;2023-02-26T13:45:41;22.90;44.90
1329;DHT22;658;48.820;9.354;2023-02-26T13:50:04;23.00;44.90
1329;DHT22;658;48.820;9.354;2023-02-26T13:58:28;23.10;45.10
1329;DHT22;658;48.820;9.354;2023-02-26T14:11:04;22.90;45.10
1329;DHT22;658;48.820;9.354;2023-02-26T14:23:37;23.10;44.80
1329;DHT22;658;48.820;9.354;2023-02-26T14:27:41;23.10;44.70
1329;DHT22;658;48.820;9.354;2023-02-26T14:32:14;23.40;44.20
1329;DHT22;658;48.820;9.354;2023-02-26T14:36:32;24.40;42.20
1329;DHT22;658;48.820;9.354;2023-02-26T14:40:53;24.00;43.30
1329;DHT22;658;48.820;9.354;2023-02-26T14:45:07;23.80;43.90
1329;DHT22;658;48.820;9.354;2023-02-26T14:49:17;24.20;43.40
1329;DHT22;658;48.820;9.354;2023-02-26T15:01:52;24.50;42.60
1329;DHT22;658;48.820;9.354;2023-02-26T15:10:48;24.00;43.30
1329;DHT22;658;48.820;9.354;2023-02-26T15:15:35;23.80;43.60
1329;DHT22;658;48.820;9.354;2023-02-26T15:27:38;24.10;42.70
1329;DHT22;658;48.820;9.354;2023-02-26T15:31:56;24.00;42.50
1329;DHT22;658;48.820;9.354;2023-02-26T15:36:05;23.80;42.70
1329;DHT22;658;48.820;9.354;2023-02-26T15:40:07;23.80;42.90
1329;DHT22;658;48.820;9.354;2023-02-26T15:44:12;23.70;42.90
1329;DHT22;658;48.820;9.354;2023-02-26T15:48:16;23.70;42.50
1329;DHT22;658;48.820;9.354;2023-02-26T15:52:20;23.60;42.60
1329;DHT22;658;48.820;9.354;2023-02-26T15:56:24;23.60;42.90
1329;DHT22;658;48.820;9.354;2023-02-26T16:00:25;23.60;43.00
1329;DHT22;658;48.820;9.354;2023-02-26T16:04:26;23.50;43.00
1329;DHT22;658;48.820;9.354;2023-02-26T16:08:27;23.40;43.00
1329;DHT22;658;48.820;9.354;2023-02-26T16:12:37;23.40;43.10
1329;DHT22;658;48.820;9.354;2023-02-26T16:16:45;23.30;43.60
1329;DHT22;658;48.820;9.354;2023-02-26T16:20:51;23.20;43.00
1329;DHT22;658;48.820;9.354;2023-02-26T16:25:13;23.20;42.90
1329;DHT22;658;48.820;9.354;2023-02-26T16:29:18;23.20;42.70
1329;DHT22;658;48.820;9.354;2023-02-26T16:33:21;23.20;42.70
1329;DHT22;658;48.820;9.354;2023-02-26T16:41:34;23.10;42.40
1329;DHT22;658;48.820;9.354;2023-02-26T16:49:37;23.00;42.40
1329;DHT22;658;48.820;9.354;2023-02-26T16:53:44;23.10;42.40
1329;DHT22;658;48.820;9.354;2023-02-26T16:57:48;23.10;42.30
1329;DHT22;658;48.820;9.354;2023-02-26T17:06:24;23.00;42.10
1329;DHT22;658;48.820;9.354;2023-02-26T17:10:35;23.00;42.00
1329;DHT22;658;48.820;9.354;2023-02-26T17:14:53;23.00;41.80
1329;DHT22;658;48.820;9.354;2023-02-26T17:18:54;23.00;41.70
1329;DHT22;658;48.820;9.354;2023-02-26T17:22:56;23.00;41.60
1329;DHT22;658;48.820;9.354;2023-02-26T17:26:58;23.00;41.40
1329;DHT22;658;48.820;9.354;2023-02-26T17:30:59;23.00;41.40
1329;DHT22;658;48.820;9.354;2023-02-26T17:35:01;22.90;41.40
1329;DHT22;658;48.820;9.354;2023-02-26T17:39:02;22.90;41.30
1329;DHT22;658;48.820;9.354;2023-02-26T17:43:04;22.90;41.30
1329;DHT22;658;48.820;9.354;2023-02-26T17:47:06;22.90;41.30
1329;DHT22;658;48.820;9.354;2023-02-26T17:51:09;22.90;41.80
1329;DHT22;658;48.820;9.354;2023-02-26T17:55:11;22.90;40.90
1329;DHT22;658;48.820;9.354;2023-02-26T17:59:12;22.90;40.90
1329;DHT22;658;48.820;9.354;2023-02-26T18:03:13;22.90;40.90
1329;DHT22;658;48.820;9.354;2023-02-26T18:07:15;22.80;40.70
1329;DHT22;658;48.820;9.354;2023-02-26T18:11:18;22.80;40.50
1329;DHT22;658;48.820;9.354;2023-02-26T18:15:21;22.80;40.60
1329;DHT22;658;48.820;9.354;2023-02-26T18:19:22;22.90;40.50
1329;DHT22;658;48.820;9.354;2023-02-26T18:23:23;22.90;40.40
1329;DHT22;658;48.820;9.354;2023-02-26T18:27:25;22.80;40.20
1329;DHT22;658;48.820;9.354;2023-02-26T18:31:26;22.90;40.10
1329;DHT22;658;48.820;9.354;2023-02-26T18:35:33;22.90;40.00
1329;DHT22;658;48.820;9.354;2023-02-26T18:39:33;22.90;40.00
1329;DHT22;658;48.820;9.354;2023-02-26T18:43:37;22.80;39.80
1329;DHT22;658;48.820;9.354;2023-02-26T18:47:38;22.80;39.80
1329;DHT22;658;48.820;9.354;2023-02-26T18:51:39;22.80;39.60
1329;DHT22;658;48.820;9.354;2023-02-26T18:55:40;22.80;39.50
1329;DHT22;658;48.820;9.354;2023-02-26T18:59:41;22.80;39.20
1329;DHT22;658;48.820;9.354;2023-02-26T19:03:45;22.80;39.00
1329;DHT22;658;48.820;9.354;2023-02-26T19:07:46;22.80;39.40
1329;DHT22;658;48.820;9.354;2023-02-26T19:11:48;22.80;39.40
1329;DHT22;658;48.820;9.354;2023-02-26T19:15:49;22.80;39.40
1329;DHT22;658;48.820;9.354;2023-02-26T19:19:50;22.80;39.40
1329;DHT22;658;48.820;9.354;2023-02-26T19:23:51;22.80;39.30
1329;DHT22;658;48.820;9.354;2023-02-26T19:27:58;22.70;39.30
1329;DHT22;658;48.820;9.354;2023-02-26T19:31:59;22.70;39.20
1329;DHT22;658;48.820;9.354;2023-02-26T19:36:07;22.70;39.20
1329;DHT22;658;48.820;9.354;2023-02-26T19:40:10;22.70;39.10
1329;DHT22;658;48.820;9.354;2023-02-26T19:44:16;22.80;39.10
1329;DHT22;658;48.820;9.354;2023-02-26T19:48:16;22.80;38.90
1329;DHT22;658;48.820;9.354;2023-02-26T19:52:17;22.80;38.60
1329;DHT22;658;48.820;9.354;2023-02-26T19:56:18;22.90;38.60
1329;DHT22;658;48.820;9.354;2023-02-26T20:00:23;22.80;38.60
1329;DHT22;658;48.820;9.354;2023-02-26T20:04:25;22.90;38.50
1329;DHT22;658;48.820;9.354;2023-02-26T20:08:28;22.80;38.60
1329;DHT22;658;48.820;9.354;2023-02-26T20:12:29;22.90;38.40
1329;DHT22;658;48.820;9.354;2023-02-26T20:16:29;22.80;38.30
1329;DHT22;658;48.820;9.354;2023-02-26T20:20:30;22.90;38.30
1329;DHT22;658;48.820;9.354;2023-02-26T20:24:32;22.90;38.20
1329;DHT22;658;48.820;9.354;2023-02-26T20:28:34;22.80;38.80
1329;DHT22;658;48.820;9.354;2023-02-26T20:32:51;22.90;38.60
1329;DHT22;658;48.820;9.354;2023-02-26T20:37:01;22.80;38.40
1329;DHT22;658;48.820;9.354;2023-02-26T20:41:03;22.80;38.40
1329;DHT22;658;48.820;9.354;2023-02-26T20:45:13;22.80;38.40
1329;DHT22;658;48.820;9.354;2023-02-26T20:49:52;22.80;38.30
1329;DHT22;658;48.820;9.354;2023-02-26T20:53:53;22.90;38.30
1329;DHT22;658;48.820;9.354;2023-02-26T20:57:54;22.80;38.40
1329;DHT22;658;48.820;9.354;2023-02-26T21:01:54;22.80;38.40
1329;DHT22;658;48.820;9.354;2023-02-26T21:05:56;22.80;38.30
1329;DHT22;658;48.820;9.354;2023-02-26T21:09:57;22.80;38.10
1329;DHT22;658;48.820;9.354;2023-02-26T21:14:05;22.90;38.00
1329;DHT22;658;48.820;9.354;2023-02-26T21:18:07;22.80;38.20
1329;DHT22;658;48.820;9.354;2023-02-26T21:22:08;22.80;38.80
1329;DHT22;658;48.820;9.354;2023-02-26T21:26:09;22.80;39.50
1329;DHT22;658;48.820;9.354;2023-02-26T21:30:11;22.80;39.70
1329;DHT22;658;48.820;9.354;2023-02-26T21:34:12;22.70;39.50
1329;DHT22;658;48.820;9.354;2023-02-26T21:38:13;22.60;39.30
1329;DHT22;658;48.820;9.354;2023-02-26T21:42:13;22.50;39.10
1329;DHT22;658;48.820;9.354;2023-02-26T21:46:15;22.50;39.20
1329;DHT22;658;48.820;9.354;2023-02-26T21:50:15;22.30;39.00
1329;DHT22;658;48.820;9.354;2023-02-26T21:54:16;22.30;39.10
1329;DHT22;658;48.820;9.354;2023-02-26T21:58:17;22.20;39.00
1329;DHT22;658;48.820;9.354;2023-02-26T22:02:18;22.10;38.90
1329;DHT22;658;48.820;9.354;2023-02-26T22:06:18;22.10;38.90
1329;DHT22;658;48.820;9.354;2023-02-26T22:10:19;22.00;38.80
1329;DHT22;658;48.820;9.354;2023-02-26T22:14:20;22.00;38.70
1329;DHT22;658;48.820;9.354;2023-02-26T22:18:21;21.90;38.60
1329;DHT22;658;48.820;9.354;2023-02-26T22:22:22;21.90;39.20
1329;DHT22;658;48.820;9.354;2023-02-26T22:26:23;21.90;38.60
1329;DHT22;658;48.820;9.354;2023-02-26T22:30:23;21.80;38.60
1329;DHT22;658;48.820;9.354;2023-02-26T22:34:24;21.80;38.60
1329;DHT22;658;48.820;9.354;2023-02-26T22:38:25;21.80;38.50
1329;DHT22;658;48.820;9.354;2023-02-26T22:42:26;21.70;38.40
1329;DHT22;658;48.820;9.354;2023-02-26T22:46:27;21.80;38.50
1329;DHT22;658;48.820;9.354;2023-02-26T22:50:28;21.70;38.40
1329;DHT22;658;48.820;9.354;2023-02-26T22:54:28;21.70;38.40
1329;DHT22;658;48.820;9.354;2023-02-26T22:58:29;21.70;38.40
1329;DHT22;658;48.820;9.354;2023-02-26T23:02:30;21.70;38.40
1329;DHT22;658;48.820;9.354;2023-02-26T23:06:30;21.60;38.40
1329;DHT22;658;48.820;9.354;2023-02-26T23:10:31;21.70;38.50
1329;DHT22;658;48.820;9.354;2023-02-26T23:14:32;21.60;38.30
1329;DHT22;658;48.820;9.354;2023-02-26T23:18:33;21.60;38.30
1329;DHT22;658;48.820;9.354;2023-02-26T23:22:36;21.60;38.20
1329;DHT22;658;48.820;9.354;2023-02-26T23:26:37;21.60;38.30
1329;DHT22;658;48.820;9.354;2023-02-26T23:30:38;21.60;38.30
1329;DHT22;658;48.820;9.354;2023-02-26T23:34:39;21.60;38.30
1329;DHT22;658;48.820;9.354;2023-02-26T23:38:40;21.50;38.10
1329;DHT22;658;48.820;9.354;2023-02-26T23:42:41;21.60;38.10
1329;DHT22;658;48.820;9.354;2023-02-26T23:46:42;21.50;38.00
1329;DHT22;658;48.820;9.354;2023-02-26T23:50:43;21.50;38.00
1329;DHT22;658;48.820;9.354;2023-02-26T23:54:44;21.50;38.00
1329;DHT22;658;48.820;9.354;2023-02-26T23:58:45;21.50;37.90
